createdAt,value
2022-08-03T00:01:48.739Z,77.60
2022-08-03T00:04:38.122Z,77.19
2022-08-03T00:07:27.547Z,78.23
2022-08-03T00:10:17.423Z,78.66
2022-08-03T00:13:07.251Z,78.17
2022-08-03T00:15:57.672Z,79.50
2022-08-03T00:18:47.513Z,79.51
2022-08-03T00:21:37.235Z,79.14
2022-08-03T00:24:27.006Z,79.27
2022-08-03T00:27:19.413Z,78.72
2022-08-03T00:30:09.807Z,78.80
2022-08-03T00:33:00.222Z,78.52
2022-08-03T00:35:51.281Z,78.09
2022-08-03T00:38:41.849Z,78.38
2022-08-03T00:41:31.985Z,77.79
2022-08-03T00:44:22.455Z,77.84
2022-08-03T00:47:12.191Z,77.52
2022-08-03T00:50:02.863Z,77.24
2022-08-03T00:52:58.548Z,77.28
2022-08-03T00:55:48.600Z,77.33
2022-08-03T00:58:38.613Z,76.74
2022-08-03T01:01:29.197Z,76.90
2022-08-03T01:04:22.931Z,77.08
2022-08-03T01:07:40.411Z,76.98
2022-08-03T01:10:33.453Z,76.09
2022-08-03T01:14:00.947Z,75.69
2022-08-03T01:17:01.756Z,75.90
2022-08-03T01:20:07.783Z,75.78
2022-08-03T01:23:05.695Z,73.98
2022-08-03T01:26:40.431Z,74.08
2022-08-03T01:29:47.195Z,74.08
2022-08-03T01:33:01.048Z,72.64
2022-08-03T01:36:11.652Z,70.66
2022-08-03T01:39:06.222Z,71.66
2022-08-03T01:42:02.019Z,70.89
2022-08-03T01:44:53.726Z,69.55
2022-08-03T01:47:44.733Z,69.28
2022-08-03T01:50:35.746Z,68.88
2022-08-03T01:53:25.457Z,69.06
2022-08-03T01:56:15.070Z,68.29
2022-08-03T01:59:05.133Z,67.94
2022-08-03T02:02:28.677Z,67.07
2022-08-03T02:05:10.774Z,66.36
2022-08-03T02:08:04.172Z,66.13
2022-08-03T02:10:55.816Z,66.71
2022-08-03T02:13:47.084Z,66.75
2022-08-03T02:16:37.443Z,66.68
2022-08-03T02:19:32.445Z,66.26
2022-08-03T02:22:26.586Z,66.32
2022-08-03T02:25:19.438Z,66.51
2022-08-03T02:28:14.267Z,65.47
2022-08-03T02:31:10.621Z,65.22
2022-08-03T02:34:04.266Z,65.50
2022-08-03T02:36:55.930Z,65.42
2022-08-03T02:39:46.573Z,63.97
2022-08-03T02:42:37.887Z,63.38
2022-08-03T02:45:28.741Z,63.98
2022-08-03T02:48:24.052Z,64.78
2022-08-03T02:51:13.832Z,66.91
2022-08-03T02:54:05.638Z,68.59
2022-08-03T02:56:56.852Z,69.43
2022-08-03T02:59:48.189Z,68.50
2022-08-03T03:02:39.088Z,68.46
2022-08-03T03:05:53.596Z,68.82
2022-08-03T03:08:44.005Z,68.30
2022-08-03T03:11:37.074Z,69.59
2022-08-03T03:14:33.694Z,70.24
2022-08-03T03:17:24.286Z,69.82
2022-08-03T03:20:14.894Z,69.63
2022-08-03T03:23:04.727Z,68.96
2022-08-03T03:25:57.497Z,67.68
2022-08-03T03:28:47.823Z,67.13
2022-08-03T03:31:38.742Z,66.99
2022-08-03T03:34:32.057Z,66.68
2022-08-03T03:37:21.645Z,66.64
2022-08-03T03:40:12.530Z,67.79
2022-08-03T03:43:02.926Z,67.52
2022-08-03T03:45:55.077Z,68.28
2022-08-03T03:48:44.936Z,68.32
2022-08-03T03:51:34.849Z,67.46
2022-08-03T03:54:25.440Z,67.93
2022-08-03T03:57:18.799Z,67.79
2022-08-03T04:00:09.540Z,67.58
2022-08-03T04:02:59.897Z,65.99
2022-08-03T04:06:07.601Z,65.83
2022-08-03T04:09:15.808Z,65.35
2022-08-03T04:12:07.282Z,65.46
2022-08-03T04:14:59.596Z,65.63
2022-08-03T04:17:51.861Z,65.73
2022-08-03T04:20:42.994Z,65.63
2022-08-03T04:23:36.390Z,66.16
2022-08-03T04:26:28.314Z,66.46
2022-08-03T04:29:18.718Z,65.75
2022-08-03T04:32:09.391Z,65.12
2022-08-03T04:34:59.295Z,66.20
2022-08-03T04:37:52.055Z,66.48
2022-08-03T04:40:44.293Z,66.74
2022-08-03T04:43:35.514Z,66.46
2022-08-03T04:46:29.579Z,66.01
2022-08-03T04:49:22.340Z,65.97
2022-08-03T04:52:12.201Z,65.90
2022-08-03T04:55:02.860Z,64.95
2022-08-03T04:57:52.904Z,63.22
2022-08-03T05:00:43.790Z,63.15
2022-08-03T05:03:34.435Z,62.62
2022-08-03T05:06:25.042Z,61.03
2022-08-03T05:09:45.954Z,61.37
2022-08-03T05:12:28.389Z,60.78
2022-08-03T05:15:22.280Z,61.07
2022-08-03T05:18:14.124Z,59.56
2022-08-03T05:21:05.750Z,60.41
2022-08-03T05:23:56.193Z,59.63
2022-08-03T05:26:46.305Z,59.17
2022-08-03T05:29:36.327Z,58.32
2022-08-03T05:32:26.007Z,58.32
2022-08-03T05:35:55.881Z,56.83
2022-08-03T05:38:28.540Z,56.79
2022-08-03T05:41:20.962Z,57.92
2022-08-03T05:44:14.209Z,58.51
2022-08-03T05:47:04.096Z,56.70
2022-08-03T05:49:53.527Z,55.62
2022-08-03T05:52:44.692Z,55.58
2022-08-03T05:55:34.408Z,54.83
2022-08-03T05:58:24.286Z,54.31
2022-08-03T06:01:26.099Z,53.73
2022-08-03T06:04:18.655Z,53.30
2022-08-03T06:07:09.112Z,52.14
2022-08-03T06:10:37.354Z,52.20
2022-08-03T06:13:09.401Z,53.50
2022-08-03T06:15:59.410Z,54.35
2022-08-03T06:18:49.470Z,53.46
2022-08-03T06:21:39.929Z,52.74
2022-08-03T06:24:30.848Z,53.58
2022-08-03T06:27:20.932Z,53.58
2022-08-03T06:30:27.969Z,52.03
2022-08-03T06:33:18.164Z,51.64
2022-08-03T06:36:08.774Z,52.24
2022-08-03T06:39:06.368Z,53.43
2022-08-03T06:41:58.316Z,54.02
2022-08-03T06:44:47.706Z,53.38
2022-08-03T06:47:39.040Z,52.97
2022-08-03T06:50:37.815Z,52.90
2022-08-03T06:53:28.319Z,52.36
2022-08-03T06:56:19.025Z,53.09
2022-08-03T07:00:09.005Z,53.22
2022-08-03T07:02:24.777Z,53.34
2022-08-03T07:05:18.475Z,53.47
2022-08-03T07:08:09.174Z,53.21
2022-08-03T07:11:00.539Z,53.52
2022-08-03T07:13:51.307Z,53.45
2022-08-03T07:16:42.713Z,53.45
2022-08-03T07:19:32.423Z,52.79
2022-08-03T07:22:25.549Z,52.26
2022-08-03T07:25:15.275Z,51.91
2022-08-03T07:28:06.016Z,51.08
2022-08-03T07:30:55.447Z,50.84
2022-08-03T07:33:45.557Z,50.54
2022-08-03T07:36:35.882Z,50.06
2022-08-03T07:39:25.354Z,50.12
2022-08-03T07:42:18.007Z,50.33
2022-08-03T07:45:09.578Z,50.78
2022-08-03T07:48:11.782Z,48.34
2022-08-03T07:51:02.754Z,49.30
2022-08-03T07:53:52.992Z,49.45
2022-08-03T07:56:43.449Z,47.51
2022-08-03T07:59:56.627Z,46.79
2022-08-03T08:02:45.357Z,46.34
2022-08-03T08:05:35.638Z,46.63
2022-08-03T08:08:26.228Z,46.23
2022-08-03T08:11:19.207Z,46.38
2022-08-03T08:14:09.557Z,46.45
2022-08-03T08:17:02.323Z,45.33
2022-08-03T08:19:53.644Z,46.56
2022-08-03T08:22:43.811Z,47.02
2022-08-03T08:25:34.485Z,47.47
2022-08-03T08:28:32.808Z,46.75
2022-08-03T08:31:23.390Z,46.65
2022-08-03T08:34:13.785Z,46.42
2022-08-03T08:37:04.055Z,46.75
2022-08-03T08:39:53.825Z,46.81
2022-08-03T08:42:56.538Z,46.59
2022-08-03T08:45:51.797Z,46.96
2022-08-03T08:48:46.253Z,47.44
2022-08-03T08:51:50.938Z,47.24
2022-08-03T08:54:50.637Z,46.76
2022-08-03T08:57:44.580Z,47.90
2022-08-03T09:00:34.341Z,46.98
2022-08-03T09:03:29.648Z,47.13
2022-08-03T09:06:21.274Z,47.83
2022-08-03T09:09:11.190Z,48.56
2022-08-03T09:12:41.126Z,48.46
2022-08-03T09:15:33.199Z,49.07
2022-08-03T09:18:34.631Z,50.15
2022-08-03T09:21:31.720Z,50.11
2022-08-03T09:24:40.833Z,49.80
2022-08-03T09:27:31.819Z,50.22
2022-08-03T09:30:34.447Z,50.48
2022-08-03T09:33:25.226Z,50.61
2022-08-03T09:36:39.529Z,51.47
2022-08-03T09:39:42.178Z,51.81
2022-08-03T09:42:32.951Z,52.84
2022-08-03T09:45:29.683Z,52.72
2022-08-03T09:48:26.680Z,53.87
2022-08-03T09:51:33.231Z,53.52
2022-08-03T09:54:34.098Z,54.80
2022-08-03T09:57:27.477Z,55.26
2022-08-03T10:00:18.821Z,54.96
2022-08-03T10:03:08.561Z,55.36
2022-08-03T10:05:59.926Z,55.55
2022-08-03T10:09:08.341Z,56.08
2022-08-03T10:11:58.860Z,55.69
2022-08-03T10:14:48.589Z,56.08
2022-08-03T10:17:40.373Z,56.73
2022-08-03T10:20:30.787Z,56.87
2022-08-03T10:23:21.796Z,56.76
2022-08-03T10:26:15.689Z,56.88
2022-08-03T10:29:12.368Z,57.11
2022-08-03T10:32:03.679Z,57.33
2022-08-03T10:35:00.118Z,57.42
2022-08-03T10:38:14.484Z,58.42
2022-08-03T10:41:04.914Z,59.16
2022-08-03T10:44:22.890Z,59.29
2022-08-03T10:47:12.912Z,59.25
2022-08-03T10:50:02.902Z,59.04
2022-08-03T10:53:03.959Z,59.46
2022-08-03T10:56:13.116Z,59.06
2022-08-03T10:59:07.065Z,58.91
2022-08-03T11:02:00.974Z,58.75
2022-08-03T11:05:31.038Z,58.76
2022-08-03T11:08:38.562Z,59.38
2022-08-03T11:11:30.042Z,58.86
2022-08-03T11:14:20.258Z,59.22
2022-08-03T11:17:15.181Z,59.32
2022-08-03T11:20:06.823Z,59.48
2022-08-03T11:23:00.933Z,59.12
2022-08-03T11:26:12.362Z,59.05
2022-08-03T11:29:31.982Z,58.03
2022-08-03T11:32:49.148Z,57.87
2022-08-03T11:36:02.853Z,57.69
2022-08-03T11:39:18.451Z,58.95
2022-08-03T11:42:26.990Z,57.97
2022-08-03T11:45:21.243Z,58.00
2022-08-03T11:48:18.501Z,57.72
2022-08-03T11:51:10.146Z,58.11
2022-08-03T11:54:05.625Z,57.86
2022-08-03T11:56:55.375Z,58.18
2022-08-03T11:59:44.934Z,58.26
2022-08-03T12:02:36.101Z,58.35
2022-08-03T12:05:51.732Z,58.79
2022-08-03T12:08:43.305Z,59.30
2022-08-03T12:11:33.364Z,58.99
2022-08-03T12:14:49.545Z,59.01
2022-08-03T12:17:36.851Z,59.96
2022-08-03T12:20:35.294Z,60.11
2022-08-03T12:23:25.325Z,60.56
2022-08-03T12:26:14.712Z,60.97
2022-08-03T12:29:05.071Z,61.44
2022-08-03T12:31:56.045Z,61.78
2022-08-03T12:34:51.225Z,61.96
2022-08-03T12:37:41.048Z,62.65
2022-08-03T12:40:31.961Z,62.83
2022-08-03T12:43:24.733Z,62.13
2022-08-03T12:46:17.676Z,62.13
2022-08-03T12:49:07.462Z,61.92
2022-08-03T12:52:02.696Z,62.03
2022-08-03T12:55:02.401Z,61.10
2022-08-03T12:57:52.601Z,61.34
2022-08-03T13:00:42.446Z,60.29
2022-08-03T13:03:42.920Z,60.03
2022-08-03T13:06:32.874Z,59.71
2022-08-03T13:09:22.652Z,59.84
2022-08-03T13:12:17.060Z,59.59
2022-08-03T13:15:06.659Z,59.51
2022-08-03T13:17:59.939Z,60.71
2022-08-03T13:20:49.684Z,60.06
2022-08-03T13:23:39.486Z,60.35
2022-08-03T13:26:34.380Z,60.31
2022-08-03T13:29:24.118Z,60.55
2022-08-03T13:32:13.930Z,60.91
2022-08-03T13:35:06.875Z,60.94
2022-08-03T13:37:57.172Z,60.93
2022-08-03T13:40:47.242Z,60.66
2022-08-03T13:43:40.391Z,60.57
2022-08-03T13:46:30.909Z,60.51
2022-08-03T13:49:21.028Z,60.60
2022-08-03T13:52:10.818Z,60.53
2022-08-03T13:55:01.270Z,60.30
2022-08-03T13:58:03.795Z,60.51
2022-08-03T14:00:56.232Z,60.75
2022-08-03T14:03:47.815Z,60.36
2022-08-03T14:06:37.550Z,60.53
2022-08-03T14:09:28.172Z,60.43
2022-08-03T14:12:18.887Z,60.61
2022-08-03T14:15:11.389Z,60.36
2022-08-03T14:18:03.863Z,61.08
2022-08-03T14:20:56.332Z,61.06
2022-08-03T14:23:47.298Z,61.06
2022-08-03T14:26:36.416Z,60.99
2022-08-03T14:29:25.694Z,61.37
2022-08-03T14:32:15.175Z,61.03
2022-08-03T14:35:05.354Z,61.40
2022-08-03T14:37:54.689Z,60.95
2022-08-03T14:40:44.824Z,61.32
2022-08-03T14:43:36.006Z,61.20
2022-08-03T14:46:26.322Z,61.43
2022-08-03T14:50:30.260Z,61.62
2022-08-03T14:52:27.674Z,61.70
2022-08-03T14:55:17.082Z,61.86
2022-08-03T14:58:19.647Z,61.73
2022-08-03T15:02:03.397Z,61.82
2022-08-03T15:04:21.214Z,61.74
2022-08-03T15:07:11.333Z,61.31
2022-08-03T15:10:02.442Z,61.03
2022-08-03T15:12:51.877Z,60.74
2022-08-03T15:15:42.990Z,60.68
2022-08-03T15:18:34.994Z,60.72
2022-08-03T15:21:46.028Z,60.89
2022-08-03T15:24:36.112Z,60.88
2022-08-03T15:27:26.066Z,60.55
2022-08-03T15:30:15.683Z,60.27
2022-08-03T15:33:05.902Z,60.48
2022-08-03T15:35:55.543Z,60.23
2022-08-03T15:38:45.885Z,60.28
2022-08-03T15:41:35.774Z,60.33
2022-08-03T15:44:26.121Z,60.44
2022-08-03T15:47:18.857Z,60.52
2022-08-03T15:50:09.900Z,60.62
2022-08-03T15:53:00.495Z,61.02
2022-08-03T15:55:53.020Z,60.93
2022-08-03T15:59:04.578Z,60.99
2022-08-03T16:01:58.155Z,61.27
2022-08-03T16:04:48.765Z,61.29
2022-08-03T16:08:03.100Z,61.63
2022-08-03T16:10:53.251Z,61.83
2022-08-03T16:14:11.896Z,62.56
2022-08-03T16:16:57.171Z,62.81
2022-08-03T16:19:46.736Z,62.74
2022-08-03T16:22:36.950Z,63.28
2022-08-03T16:25:26.992Z,63.69
2022-08-03T16:28:16.951Z,63.82
2022-08-03T16:31:07.922Z,63.49
2022-08-03T16:33:57.384Z,63.65
2022-08-03T16:36:50.360Z,63.60
2022-08-03T16:39:40.370Z,63.96
2022-08-03T16:42:35.246Z,64.13
2022-08-03T16:45:25.560Z,64.45
2022-08-03T16:48:16.544Z,64.67
2022-08-03T16:51:06.529Z,64.66
2022-08-03T16:54:08.001Z,65.09
2022-08-03T16:57:02.559Z,65.38
2022-08-03T16:59:51.934Z,65.70
2022-08-03T17:02:48.151Z,66.04
2022-08-03T17:05:47.038Z,66.30
2022-08-03T17:08:37.029Z,66.43
2022-08-03T17:11:33.043Z,66.38
2022-08-03T17:14:28.258Z,66.75
2022-08-03T17:17:25.524Z,66.99
2022-08-03T17:20:16.686Z,66.58
2022-08-03T17:23:34.288Z,66.60
2022-08-03T17:26:30.270Z,66.99
2022-08-03T17:29:26.324Z,67.22
2022-08-03T17:32:22.180Z,67.35
2022-08-03T17:35:14.200Z,67.59
2022-08-03T17:38:06.562Z,67.55
2022-08-03T17:40:59.028Z,67.46
2022-08-03T17:44:15.244Z,67.71
2022-08-03T17:47:01.575Z,67.81
2022-08-03T17:49:51.389Z,68.02
2022-08-03T17:52:48.249Z,68.23
2022-08-03T17:55:55.170Z,68.25
2022-08-03T17:59:08.472Z,68.35
2022-08-03T18:02:29.957Z,68.25
2022-08-03T18:05:22.884Z,68.65
2022-08-03T18:08:35.418Z,68.87
2022-08-03T18:11:37.234Z,68.72
2022-08-03T18:14:57.903Z,69.08
2022-08-03T18:18:02.181Z,69.21
2022-08-03T18:20:52.333Z,68.88
2022-08-03T18:23:42.133Z,69.25
2022-08-03T18:26:32.531Z,69.12
2022-08-03T18:29:24.134Z,68.88
2022-08-03T18:32:16.862Z,69.10
2022-08-03T18:35:08.221Z,69.19
2022-08-03T18:38:04.942Z,68.80
2022-08-03T18:40:59.942Z,69.22
2022-08-03T18:44:06.589Z,69.16
2022-08-03T18:47:16.310Z,68.99
2022-08-03T18:50:50.028Z,68.89
2022-08-03T18:54:03.579Z,68.82
2022-08-03T18:56:56.541Z,69.07
2022-08-03T18:59:56.360Z,68.92
2022-08-03T19:02:51.264Z,68.96
2022-08-03T19:06:14.579Z,69.22
2022-08-03T19:09:21.455Z,69.35
2022-08-03T19:12:33.875Z,69.48
2022-08-03T19:15:37.054Z,69.28
2022-08-03T19:18:34.577Z,69.51
2022-08-03T19:21:24.433Z,69.85
2022-08-03T19:24:15.492Z,69.83
2022-08-03T19:27:06.830Z,70.03
2022-08-03T19:30:08.214Z,70.16
2022-08-03T19:33:05.308Z,70.17
2022-08-03T19:35:57.092Z,70.23
2022-08-03T19:38:47.822Z,70.64
2022-08-03T19:41:41.621Z,70.50
2022-08-03T19:44:33.742Z,70.58
2022-08-03T19:47:30.729Z,70.40
2022-08-03T19:50:22.043Z,70.67
2022-08-03T19:53:12.777Z,70.79
2022-08-03T19:56:07.989Z,70.92
2022-08-03T19:58:59.879Z,71.01
2022-08-03T20:05:00.509Z,71.26
2022-08-03T20:07:52.175Z,71.08
2022-08-03T20:10:41.646Z,71.13
2022-08-03T20:13:39.015Z,71.28
2022-08-03T20:16:29.004Z,71.34
2022-08-03T20:19:20.011Z,71.54
2022-08-03T20:22:14.493Z,71.08
2022-08-03T20:25:10.574Z,71.56
2022-08-03T20:28:13.590Z,71.40
2022-08-03T20:31:04.483Z,71.29
2022-08-03T20:33:56.525Z,71.49
2022-08-03T20:36:47.315Z,71.39
2022-08-03T20:39:37.515Z,71.68
2022-08-03T20:42:29.963Z,72.08
2022-08-03T20:45:59.918Z,72.11
2022-08-03T20:48:32.545Z,71.94
2022-08-03T20:51:50.030Z,72.17
2022-08-03T20:54:32.503Z,71.95
2022-08-03T20:57:22.203Z,72.06
2022-08-03T21:00:14.323Z,71.62
2022-08-03T21:03:04.300Z,71.81
2022-08-03T21:05:55.533Z,71.82
2022-08-03T21:08:46.867Z,71.75
2022-08-03T21:11:51.009Z,71.81
2022-08-03T21:13:09.393Z,70.97
2022-08-03T21:15:03.723Z,71.25
2022-08-03T21:17:56.968Z,71.39
2022-08-03T21:20:48.432Z,70.93
2022-08-03T21:23:48.960Z,70.89
2022-08-03T21:26:41.293Z,70.73
2022-08-03T21:29:31.240Z,71.10
2022-08-03T21:32:32.809Z,70.62
2022-08-03T21:35:24.504Z,71.12
2022-08-03T21:38:29.461Z,70.83
2022-08-03T21:41:20.467Z,71.07
2022-08-03T21:44:10.424Z,71.32
2022-08-03T21:47:01.353Z,71.33
2022-08-03T21:50:08.385Z,71.56
2022-08-03T21:52:58.964Z,71.42
2022-08-03T21:56:06.109Z,71.58
2022-08-03T21:58:58.068Z,71.45
2022-08-03T22:01:51.563Z,71.74
2022-08-03T22:04:55.240Z,71.72
2022-08-03T22:07:46.135Z,71.82
2022-08-03T22:10:36.367Z,71.90
2022-08-03T22:13:43.793Z,72.05
2022-08-03T22:16:37.444Z,72.11
2022-08-03T22:19:27.432Z,71.88
2022-08-03T22:22:20.530Z,71.87
2022-08-03T22:25:13.964Z,71.64
2022-08-03T22:28:11.156Z,71.68
2022-08-03T22:31:57.639Z,72.06
2022-08-03T22:34:10.964Z,71.79
2022-08-03T22:37:05.263Z,72.47
2022-08-03T22:39:55.371Z,71.85
2022-08-03T22:42:47.296Z,72.12
2022-08-03T22:45:45.832Z,72.08
2022-08-03T22:48:48.741Z,71.39
2022-08-03T22:51:38.364Z,71.57
2022-08-03T22:54:30.155Z,71.44
2022-08-03T22:57:21.754Z,71.32
2022-08-03T23:00:14.552Z,71.00
2022-08-03T23:03:04.838Z,71.42
2022-08-03T23:06:00.477Z,71.42
2022-08-03T23:08:53.684Z,71.14
2022-08-03T23:11:47.605Z,71.35
2022-08-03T23:14:41.043Z,71.02
2022-08-03T23:17:33.168Z,71.31
2022-08-03T23:20:26.624Z,71.35
2022-08-03T23:23:16.609Z,71.13
2022-08-03T23:26:10.272Z,71.13
2022-08-03T23:29:04.971Z,71.01
2022-08-03T23:31:56.431Z,70.94
2022-08-03T23:35:06.211Z,71.12
2022-08-03T23:38:21.571Z,70.70
2022-08-03T23:41:10.257Z,70.36
2022-08-03T23:44:01.670Z,70.13
2022-08-03T23:46:53.740Z,70.40
2022-08-03T23:49:43.398Z,69.65
2022-08-03T23:52:47.768Z,70.33
2022-08-03T23:55:53.584Z,70.57
2022-08-03T23:59:01.488Z,70.22
